Time;durP1;ratioP1;P1;durP2;ratioP2;P2;SDS_P1;SDS_P2;PMS_P1;PMS_P2;Temp;Humidity;BMP_temperature;BMP_pressure;BME280_temperature;BME280_humidity;BME280_pressure;Samples;Min_cycle;Max_cycle;Signal;HPM_P1;HPM_P2
2022/10/08 00:00:06;;;;;;;11.77;7.60;;;24.50;57.70;;;;;;7681614;22;81065;-59
2022/10/08 00:03:11;;;;;;;9.93;7.00;;;24.60;57.70;;;;;;7675611;22;81000;-55
2022/10/08 00:06:12;;;;;;;11.82;7.97;;;24.60;57.70;;;;;;7677608;22;80311;-57
2022/10/08 00:09:12;;;;;;;11.40;7.68;;;24.50;57.70;;;;;;7679172;22;80756;-58
2022/10/08 00:12:13;;;;;;;11.10;7.72;;;24.50;57.70;;;;;;7676765;22;81328;-57
2022/10/08 00:15:14;;;;;;;11.43;7.80;;;24.50;57.70;;;;;;7681385;22;80293;-59
2022/10/08 00:18:14;;;;;;;10.13;7.28;;;24.50;57.70;;;;;;7677452;22;81316;-58
2022/10/08 00:21:15;;;;;;;11.75;7.70;;;24.50;57.70;;;;;;7678492;22;81344;-58
2022/10/08 00:24:15;;;;;;;9.68;6.85;;;24.50;57.70;;;;;;7680513;22;80240;-59
2022/10/08 00:27:16;;;;;;;10.88;6.97;;;24.50;57.80;;;;;;7677209;22;80147;-59
2022/10/08 00:30:17;;;;;;;10.50;7.50;;;24.50;57.80;;;;;;7679931;22;80304;-60
2022/10/08 00:33:17;;;;;;;10.38;7.03;;;24.50;57.70;;;;;;7677328;22;80326;-59
2022/10/08 00:36:18;;;;;;;13.07;7.13;;;24.50;57.70;;;;;;7680203;22;80444;-59
2022/10/08 00:39:18;;;;;;;11.43;7.50;;;24.50;57.60;;;;;;7677284;22;81536;-59
2022/10/08 00:42:20;;;;;;;11.98;7.70;;;24.50;57.60;;;;;;7675499;22;80581;-59
2022/10/08 00:45:20;;;;;;;11.93;7.50;;;24.50;57.60;;;;;;7679663;22;80560;-58
2022/10/08 00:48:24;;;;;;;11.48;8.18;;;24.50;57.50;;;;;;7678185;22;81779;-58
2022/10/08 00:51:25;;;;;;;10.23;7.25;;;24.50;57.50;;;;;;7680944;22;80698;-58
2022/10/08 00:54:25;;;;;;;10.32;6.82;;;24.50;57.40;;;;;;7680075;22;80550;-58
2022/10/08 00:57:26;;;;;;;10.35;7.88;;;24.50;57.40;;;;;;7678716;22;82426;-57
2022/10/08 01:00:26;;;;;;;11.52;7.30;;;24.50;57.30;;;;;;7682386;22;80915;-58
2022/10/08 01:03:27;;;;;;;12.43;7.85;;;24.50;57.30;;;;;;7679842;22;81678;-59
2022/10/08 01:06:27;;;;;;;13.63;7.65;;;24.50;57.20;;;;;;7678598;22;80326;-58
2022/10/08 01:09:28;;;;;;;9.13;6.55;;;24.50;57.20;;;;;;7679940;22;80649;-58
2022/10/08 01:12:28;;;;;;;10.65;7.03;;;24.50;57.10;;;;;;7681861;22;80097;-58
2022/10/08 01:15:30;;;;;;;10.05;7.45;;;24.50;57.10;;;;;;7679353;22;80949;-58
2022/10/08 01:18:31;;;;;;;11.32;7.03;;;24.40;57.00;;;;;;7680167;22;80273;-58
2022/10/08 01:21:31;;;;;;;13.25;7.30;;;24.50;57.60;;;;;;7680585;22;80809;-58
2022/10/08 01:27:51;;;;;;;10.73;7.15;;;24.40;56.90;;;;;;7680921;22;81972;-58
2022/10/08 01:30:52;;;;;;;9.35;6.72;;;24.40;56.80;;;;;;7678584;22;80633;-57
2022/10/08 01:33:52;;;;;;;11.05;7.35;;;24.40;56.80;;;;;;7679658;22;81756;-57
2022/10/08 01:36:53;;;;;;;9.82;7.28;;;24.50;56.70;;;;;;7677431;22;80372;-57
2022/10/08 01:39:54;;;;;;;10.43;6.68;;;24.40;56.60;;;;;;7680807;22;80784;-57
2022/10/08 01:42:54;;;;;;;10.75;6.75;;;24.40;56.50;;;;;;7682301;22;80261;-58
2022/10/08 01:45:55;;;;;;;10.15;7.38;;;24.40;56.50;;;;;;7678436;22;80380;-58
2022/10/08 01:48:56;;;;;;;10.45;7.50;;;24.40;56.50;;;;;;7681877;22;80375;-57
2022/10/08 01:51:56;;;;;;;10.05;7.38;;;24.40;56.40;;;;;;7677410;22;80897;-59
2022/10/08 01:54:57;;;;;;;9.77;6.93;;;24.40;56.40;;;;;;7681947;22;80884;-59
2022/10/08 01:57:58;;;;;;;12.15;6.97;;;24.40;56.40;;;;;;7679929;22;81732;-58
2022/10/08 02:00:58;;;;;;;10.82;7.65;;;24.40;56.40;;;;;;7679320;22;80085;-59
2022/10/08 02:07:18;;;;;;;10.05;7.30;;;24.40;56.40;;;;;;7676420;22;84994;-58
2022/10/08 02:10:19;;;;;;;10.18;6.68;;;24.40;56.40;;;;;;7681889;22;80869;-58
2022/10/08 02:13:19;;;;;;;11.80;6.85;;;24.40;56.40;;;;;;7677711;22;80106;-58
2022/10/08 02:16:20;;;;;;;8.50;6.65;;;24.40;56.30;;;;;;7681008;22;80022;-59
2022/10/08 02:19:20;;;;;;;12.85;7.38;;;24.40;56.30;;;;;;7676260;22;81433;-59
2022/10/08 02:22:21;;;;;;;9.85;7.10;;;24.40;56.20;;;;;;7679873;22;80372;-58
2022/10/08 02:25:21;;;;;;;13.88;7.80;;;24.40;56.20;;;;;;7679863;22;80191;-59
2022/10/08 02:28:22;;;;;;;10.05;6.85;;;24.40;56.10;;;;;;7680969;22;81230;-59
2022/10/08 02:31:22;;;;;;;10.45;6.70;;;24.40;56.10;;;;;;7677391;22;80282;-58
2022/10/08 02:34:23;;;;;;;9.88;7.25;;;24.40;56.00;;;;;;7680238;22;80664;-58
2022/10/08 02:37:23;;;;;;;8.32;6.80;;;24.50;56.00;;;;;;7679949;22;80320;-45
2022/10/08 02:40:24;;;;;;;12.57;7.45;;;24.40;55.90;;;;;;7678086;22;80592;-48
2022/10/08 02:43:24;;;;;;;9.77;6.57;;;24.50;56.00;;;;;;7679834;22;80190;-47
2022/10/08 02:46:26;;;;;;;8.10;6.25;;;24.40;55.90;;;;;;7676992;22;81393;-46
2022/10/08 02:49:26;;;;;;;10.80;7.43;;;24.40;55.80;;;;;;7679884;22;80748;-49
2022/10/08 02:52:27;;;;;;;9.48;6.78;;;24.40;55.80;;;;;;7679000;22;80873;-46
2022/10/08 02:55:27;;;;;;;10.85;7.15;;;24.50;55.80;;;;;;7678802;22;80279;-48
2022/10/08 02:58:28;;;;;;;10.88;7.05;;;24.40;55.80;;;;;;7682015;22;80707;-55
2022/10/08 03:01:29;;;;;;;9.50;6.32;;;24.50;55.80;;;;;;7676077;22;80299;-54
2022/10/08 03:04:30;;;;;;;10.70;7.35;;;24.50;55.70;;;;;;7678171;22;80324;-54
2022/10/08 03:07:30;;;;;;;7.50;5.90;;;24.40;55.70;;;;;;7678262;22;81741;-53
2022/10/08 03:10:31;;;;;;;10.57;6.72;;;24.40;55.60;;;;;;7678507;22;84655;-54
2022/10/08 03:13:31;;;;;;;9.45;6.47;;;24.40;55.60;;;;;;7678793;22;80224;-54
2022/10/08 03:16:32;;;;;;;9.43;6.95;;;24.40;55.70;;;;;;7679222;22;81119;-54
2022/10/08 03:19:33;;;;;;;9.52;7.05;;;24.40;55.70;;;;;;7677465;22;80472;-52
2022/10/08 03:22:33;;;;;;;8.95;7.05;;;24.40;55.70;;;;;;7678138;22;80036;-52
2022/10/08 03:25:34;;;;;;;10.25;6.45;;;24.40;55.60;;;;;;7677935;22;80234;-50
2022/10/08 03:28:34;;;;;;;9.02;6.85;;;24.40;55.60;;;;;;7676385;22;80310;-52
2022/10/08 03:31:35;;;;;;;9.98;7.18;;;24.40;55.60;;;;;;7677725;22;81568;-49
2022/10/08 03:34:35;;;;;;;10.93;7.15;;;24.40;55.60;;;;;;7679301;22;80134;-59
2022/10/08 03:37:36;;;;;;;15.65;6.95;;;24.40;55.60;;;;;;7679764;22;81928;-58
2022/10/08 03:40:37;;;;;;;8.85;6.45;;;24.40;55.30;;;;;;7677379;22;80650;-57
2022/10/08 03:43:37;;;;;;;10.18;6.43;;;24.40;55.30;;;;;;7679794;22;81090;-58
2022/10/08 03:46:38;;;;;;;8.10;6.18;;;24.40;55.20;;;;;;7677407;22;80314;-59
2022/10/08 03:49:38;;;;;;;8.23;6.43;;;24.50;55.30;;;;;;7678587;22;81621;-58
2022/10/08 03:52:39;;;;;;;8.05;6.18;;;24.50;55.30;;;;;;7678412;22;81246;-59
2022/10/08 03:55:40;;;;;;;9.65;6.18;;;24.50;55.20;;;;;;7677720;22;80377;-59
2022/10/08 03:58:40;;;;;;;7.88;5.28;;;24.60;55.10;;;;;;7678692;22;82087;-58
2022/10/08 04:01:41;;;;;;;8.95;5.95;;;24.60;55.00;;;;;;7623329;22;82092;-58
2022/10/08 04:04:41;;;;;;;8.73;6.20;;;24.60;55.00;;;;;;7652813;22;83423;-58
2022/10/08 04:07:42;;;;;;;8.15;6.05;;;24.70;54.90;;;;;;7679439;22;80346;-58
2022/10/08 04:10:42;;;;;;;12.85;6.45;;;24.60;54.80;;;;;;7676799;22;80212;-51
2022/10/08 04:13:43;;;;;;;9.02;6.43;;;24.70;54.80;;;;;;7679002;22;80090;-53
2022/10/08 04:16:43;;;;;;;8.18;5.78;;;24.70;54.70;;;;;;7677927;22;80389;-52
2022/10/08 04:19:44;;;;;;;7.38;4.90;;;24.70;54.70;;;;;;7675812;22;80285;-53
2022/10/08 04:22:44;;;;;;;9.20;6.30;;;24.70;54.80;;;;;;7677841;22;80312;-59
2022/10/08 04:25:45;;;;;;;7.55;4.95;;;24.70;55.20;;;;;;7685019;22;80243;-58
2022/10/08 04:28:46;;;;;;;6.20;5.43;;;24.70;55.20;;;;;;7674310;22;82300;-58
2022/10/08 04:31:47;;;;;;;8.65;5.75;;;24.70;55.20;;;;;;7681758;22;81350;-59
2022/10/08 04:34:47;;;;;;;8.75;6.18;;;24.60;55.30;;;;;;7683998;22;80228;-56
2022/10/08 04:37:48;;;;;;;10.00;5.60;;;24.60;55.20;;;;;;7682314;22;80851;-60
2022/10/08 04:40:49;;;;;;;6.75;5.63;;;24.60;55.00;;;;;;7684684;22;80416;-59
2022/10/08 04:43:49;;;;;;;7.25;5.85;;;24.60;55.20;;;;;;7682105;22;81708;-59
2022/10/08 04:46:49;;;;;;;11.55;6.07;;;24.60;55.40;;;;;;7680638;22;82080;-59
2022/10/08 04:49:50;;;;;;;11.88;5.93;;;24.60;55.10;;;;;;7685418;22;81708;-59
2022/10/08 04:52:50;;;;;;;8.40;5.72;;;24.70;55.10;;;;;;7682208;22;80245;-58
2022/10/08 04:55:51;;;;;;;6.15;5.00;;;24.70;55.10;;;;;;7682692;22;81243;-58
2022/10/08 04:58:53;;;;;;;7.35;5.18;;;24.70;55.30;;;;;;7680198;22;80320;-60
2022/10/08 05:01:55;;;;;;;9.32;6.00;;;24.70;55.00;;;;;;7680072;22;80393;-60
2022/10/08 05:04:56;;;;;;;7.97;5.57;;;24.70;55.00;;;;;;7679122;22;80877;-51
2022/10/08 05:07:56;;;;;;;14.82;6.60;;;24.70;54.80;;;;;;7678820;22;80479;-57
2022/10/08 05:10:57;;;;;;;7.70;5.60;;;24.70;54.80;;;;;;7679406;22;80594;-48
2022/10/08 05:13:57;;;;;;;18.20;6.45;;;24.70;55.30;;;;;;7679548;22;80357;-46
2022/10/08 05:16:58;;;;;;;15.98;6.60;;;24.70;55.30;;;;;;7682390;22;81644;-51
2022/10/08 05:19:58;;;;;;;11.02;5.18;;;24.70;54.90;;;;;;7681244;22;81611;-50
2022/10/08 05:22:59;;;;;;;18.20;6.07;;;24.70;54.90;;;;;;7681157;22;81251;-55
2022/10/08 05:26:01;;;;;;;17.40;6.00;;;24.70;55.00;;;;;;7682602;22;80303;-54
2022/10/08 05:29:01;;;;;;;9.43;6.03;;;24.70;55.00;;;;;;7682110;22;80314;-52
2022/10/08 05:32:02;;;;;;;14.27;6.35;;;24.70;55.40;;;;;;7683045;22;80366;-52
2022/10/08 05:35:02;;;;;;;16.42;6.35;;;24.70;54.90;;;;;;7653203;22;80122;-50
2022/10/08 05:38:03;;;;;;;13.30;6.63;;;24.80;54.80;;;;;;7660262;22;81418;-46
2022/10/08 05:41:03;;;;;;;9.18;6.10;;;24.80;55.10;;;;;;7673552;22;80327;-47
2022/10/08 05:44:04;;;;;;;17.38;6.88;;;24.90;54.60;;;;;;7675659;22;80637;-50
2022/10/08 05:47:04;;;;;;;10.15;5.55;;;24.90;55.30;;;;;;7677497;22;80393;-53
2022/10/08 05:50:05;;;;;;;14.55;6.72;;;24.90;55.90;;;;;;7674942;22;80758;-55
2022/10/08 05:53:05;;;;;;;14.07;6.13;;;24.90;56.00;;;;;;7677055;22;81680;-54
2022/10/08 05:56:06;;;;;;;13.48;7.05;;;25.00;56.20;;;;;;7678659;22;81470;-54
2022/10/08 05:59:07;;;;;;;14.27;6.88;;;25.00;55.60;;;;;;7673858;22;80307;-58
2022/10/08 06:02:07;;;;;;;10.43;6.32;;;25.00;55.90;;;;;;7674205;22;80983;-54
2022/10/08 06:05:08;;;;;;;12.38;6.68;;;25.00;56.30;;;;;;7668950;22;80749;-54
2022/10/08 06:08:08;;;;;;;13.32;6.20;;;25.10;55.90;;;;;;7673761;22;80608;-53
2022/10/08 06:11:09;;;;;;;11.32;6.15;;;25.10;55.70;;;;;;7671606;22;80187;-55
2022/10/08 06:14:09;;;;;;;9.65;6.20;;;25.10;55.80;;;;;;7674834;22;80498;-57
2022/10/08 06:17:10;;;;;;;9.60;5.68;;;25.10;55.50;;;;;;7678246;22;80928;-56
2022/10/08 06:20:10;;;;;;;10.77;6.47;;;25.10;55.60;;;;;;7680115;22;81408;-55
2022/10/08 06:23:11;;;;;;;12.38;6.63;;;25.20;56.10;;;;;;7673384;22;87317;-56
2022/10/08 06:26:11;;;;;;;16.95;6.50;;;25.20;56.20;;;;;;7672846;22;81590;-56
2022/10/08 06:29:12;;;;;;;15.43;6.35;;;25.30;56.10;;;;;;7674810;22;80469;-55
2022/10/08 06:32:12;;;;;;;10.20;5.90;;;25.30;55.90;;;;;;7672353;22;80566;-55
2022/10/08 06:35:13;;;;;;;15.75;6.53;;;25.30;55.70;;;;;;7673848;22;80162;-56
2022/10/08 06:38:13;;;;;;;10.52;6.93;;;25.30;55.60;;;;;;7674122;22;80284;-54
2022/10/08 06:41:14;;;;;;;14.35;7.20;;;25.30;55.30;;;;;;7672323;22;80605;-48
2022/10/08 06:44:14;;;;;;;16.48;7.32;;;25.30;55.20;;;;;;7675735;22;80502;-51
2022/10/08 06:47:15;;;;;;;8.43;6.65;;;25.30;54.90;;;;;;7676474;22;79983;-51
2022/10/08 06:50:15;;;;;;;14.07;7.15;;;25.30;54.30;;;;;;7674243;22;79950;-49
2022/10/08 06:53:16;;;;;;;13.73;7.72;;;25.20;54.30;;;;;;7677493;22;82031;-49
2022/10/08 06:56:17;;;;;;;12.60;7.35;;;25.30;54.10;;;;;;7652872;22;80658;-49
2022/10/08 06:59:17;;;;;;;13.40;8.32;;;25.30;53.70;;;;;;7679982;22;80630;-48
2022/10/08 07:02:18;;;;;;;14.82;7.88;;;25.30;53.60;;;;;;7677237;22;80455;-47
2022/10/08 07:05:18;;;;;;;14.98;7.65;;;25.20;53.40;;;;;;7677747;22;80622;-48
2022/10/08 07:08:19;;;;;;;17.40;7.88;;;25.20;53.20;;;;;;7656179;22;80990;-49
2022/10/08 07:11:19;;;;;;;12.68;9.00;;;25.20;53.20;;;;;;7649460;22;80779;-48
2022/10/08 07:14:19;;;;;;;13.93;7.82;;;25.20;52.90;;;;;;7656219;22;80975;-48
2022/10/08 07:17:21;;;;;;;12.00;8.20;;;25.20;52.80;;;;;;7655318;22;82198;-49
2022/10/08 07:20:22;;;;;;;12.50;8.40;;;25.20;52.90;;;;;;7629470;22;82383;-51
2022/10/08 07:23:22;;;;;;;17.25;8.85;;;25.20;52.90;;;;;;7659358;22;80430;-47
2022/10/08 07:26:23;;;;;;;13.20;8.23;;;25.20;52.80;;;;;;7673178;22;81992;-47
2022/10/08 07:29:25;;;;;;;15.85;8.35;;;25.20;52.80;;;;;;7673978;22;80302;-56
2022/10/08 07:32:25;;;;;;;13.68;8.35;;;25.20;52.80;;;;;;7675044;22;81333;-50
2022/10/08 07:35:26;;;;;;;12.15;8.05;;;25.20;52.80;;;;;;7674597;22;80283;-47
2022/10/08 07:38:26;;;;;;;22.73;11.27;;;25.20;52.80;;;;;;7659828;22;80682;-49
2022/10/08 07:41:27;;;;;;;63.88;36.58;;;25.30;53.10;;;;;;7670082;22;82740;-47
2022/10/08 07:44:28;;;;;;;65.68;32.38;;;25.30;53.20;;;;;;7671188;22;83194;-46
2022/10/08 07:47:28;;;;;;;76.13;42.13;;;25.40;53.30;;;;;;7668718;22;82820;-46
2022/10/08 07:50:29;;;;;;;115.03;56.25;;;25.50;53.60;;;;;;7669303;22;83727;-47
2022/10/08 07:53:30;;;;;;;99.28;47.90;;;25.50;53.60;;;;;;7666151;22;85127;-48
2022/10/08 07:56:30;;;;;;;87.28;44.83;;;25.50;53.60;;;;;;7675030;22;83546;-58
2022/10/08 07:59:31;;;;;;;83.97;41.47;;;25.50;53.80;;;;;;7676068;22;83398;-49
2022/10/08 08:02:31;;;;;;;75.63;37.00;;;25.60;53.80;;;;;;7676450;22;82926;-47
2022/10/08 08:05:32;;;;;;;65.25;34.28;;;25.60;53.90;;;;;;7672885;22;83205;-58
2022/10/08 08:08:32;;;;;;;65.35;34.65;;;25.70;53.90;;;;;;7673453;22;85057;-59
2022/10/08 08:11:33;;;;;;;61.72;28.85;;;25.70;54.00;;;;;;7657560;22;84132;-55
2022/10/08 08:14:33;;;;;;;47.05;23.20;;;25.70;54.30;;;;;;7671608;22;84103;-51
2022/10/08 08:17:34;;;;;;;39.63;21.27;;;25.70;54.20;;;;;;7671552;22;83879;-47
2022/10/08 08:20:34;;;;;;;36.13;17.90;;;25.80;54.20;;;;;;7669822;22;83706;-46
2022/10/08 08:23:35;;;;;;;28.70;18.00;;;25.80;54.10;;;;;;7676398;22;84321;-48
2022/10/08 08:26:36;;;;;;;38.05;17.80;;;25.90;54.10;;;;;;7674131;22;82983;-47
2022/10/08 08:29:37;;;;;;;27.52;16.90;;;25.90;54.00;;;;;;7675312;22;82902;-49
2022/10/08 08:32:37;;;;;;;28.05;15.52;;;25.90;53.90;;;;;;7674835;22;82891;-47
2022/10/08 08:35:38;;;;;;;32.03;15.88;;;26.00;54.00;;;;;;7674369;22;83207;-49
2022/10/08 08:38:38;;;;;;;26.33;13.55;;;26.00;54.00;;;;;;7673527;22;84659;-46
2022/10/08 08:41:39;;;;;;;26.00;14.88;;;26.10;54.00;;;;;;7675523;22;82854;-51
2022/10/08 08:44:40;;;;;;;31.10;13.80;;;26.10;53.70;;;;;;7674370;22;83174;-47
2022/10/08 08:47:40;;;;;;;20.98;11.80;;;26.20;53.70;;;;;;7675294;22;83873;-48
2022/10/08 08:50:41;;;;;;;23.88;11.40;;;26.20;53.20;;;;;;7670094;22;83024;-50
2022/10/08 08:53:41;;;;;;;21.40;11.15;;;26.20;52.90;;;;;;7675115;22;84153;-48
2022/10/08 08:56:43;;;;;;;16.00;9.45;;;26.20;52.70;;;;;;7677549;22;84015;-49
2022/10/08 08:59:43;;;;;;;20.98;9.65;;;26.30;52.50;;;;;;7678477;22;82248;-48
2022/10/08 09:02:44;;;;;;;14.45;9.02;;;26.30;52.40;;;;;;7677060;22;80303;-47
2022/10/08 09:05:45;;;;;;;16.38;8.40;;;26.30;52.50;;;;;;7674829;22;81066;-46
2022/10/08 09:08:46;;;;;;;13.32;7.60;;;26.30;51.90;;;;;;7677767;22;81084;-46
2022/10/08 09:11:46;;;;;;;16.17;8.75;;;26.40;51.60;;;;;;7682294;22;80807;-47
2022/10/08 09:14:47;;;;;;;17.38;7.63;;;26.50;51.70;;;;;;7678964;22;80506;-48
2022/10/08 09:17:47;;;;;;;13.07;6.82;;;26.50;51.90;;;;;;7679599;22;80532;-45
2022/10/08 09:20:48;;;;;;;12.13;7.75;;;26.60;51.70;;;;;;7677651;22;80379;-47
2022/10/08 09:23:48;;;;;;;9.07;6.00;;;26.60;51.70;;;;;;7679724;22;80449;-56
2022/10/08 09:26:49;;;;;;;12.07;6.13;;;26.60;51.90;;;;;;7682338;22;81031;-60
2022/10/08 09:29:50;;;;;;;11.02;5.70;;;26.70;51.30;;;;;;7681561;22;80765;-59
2022/10/08 09:32:50;;;;;;;10.75;6.10;;;26.80;51.50;;;;;;7681848;22;81100;-65
2022/10/08 09:35:51;;;;;;;11.13;5.45;;;26.80;50.80;;;;;;7681321;22;81026;-62
2022/10/08 09:38:51;;;;;;;11.02;5.22;;;26.80;50.50;;;;;;7682288;22;81098;-61
2022/10/08 09:41:52;;;;;;;16.17;5.05;;;26.80;50.70;;;;;;7683651;22;81277;-63
2022/10/08 09:44:57;;;;;;;11.80;5.20;;;26.90;51.00;;;;;;7682791;22;80259;-50
2022/10/08 09:47:58;;;;;;;12.95;5.88;;;26.90;51.00;;;;;;7683475;22;80484;-53
2022/10/08 09:50:59;;;;;;;9.15;5.55;;;26.90;50.90;;;;;;7680514;22;81398;-62
2022/10/08 09:53:59;;;;;;;22.92;5.68;;;27.00;51.10;;;;;;7678887;22;80726;-48
2022/10/08 09:57:00;;;;;;;7.68;5.07;;;27.00;51.20;;;;;;7655433;22;82164;-48
2022/10/08 10:00:00;;;;;;;9.57;5.22;;;27.00;51.50;;;;;;7681445;22;81595;-51
2022/10/08 10:03:01;;;;;;;14.80;5.38;;;27.00;51.50;;;;;;7651669;22;80955;-53
2022/10/08 10:06:01;;;;;;;13.82;5.32;;;27.10;51.60;;;;;;7679820;22;80278;-48
2022/10/08 10:09:02;;;;;;;16.38;5.90;;;27.10;51.60;;;;;;7680197;22;80650;-59
2022/10/08 10:12:02;;;;;;;11.50;5.55;;;27.10;51.70;;;;;;7682706;22;80400;-48
2022/10/08 10:15:03;;;;;;;8.23;5.30;;;27.10;51.60;;;;;;7683294;22;80306;-48
2022/10/08 10:18:03;;;;;;;11.93;5.47;;;27.10;51.10;;;;;;7681353;22;80299;-54
2022/10/08 10:21:04;;;;;;;8.85;5.72;;;27.10;51.40;;;;;;7680986;22;81358;-53
2022/10/08 10:24:04;;;;;;;14.65;5.10;;;27.10;51.30;;;;;;7680099;22;80295;-46
2022/10/08 10:27:06;;;;;;;13.48;5.10;;;27.10;51.40;;;;;;7679978;22;80883;-56
2022/10/08 10:30:06;;;;;;;9.00;4.88;;;27.20;51.40;;;;;;7681152;22;80495;-51
2022/10/08 10:33:07;;;;;;;10.38;4.68;;;27.20;51.40;;;;;;7676633;22;81857;-50
2022/10/08 10:36:07;;;;;;;27.63;5.07;;;27.30;51.80;;;;;;7674249;22;80934;-49
2022/10/08 10:39:08;;;;;;;10.70;5.00;;;27.30;51.40;;;;;;7673706;22;80716;-53
2022/10/08 10:42:08;;;;;;;10.23;4.90;;;27.40;51.10;;;;;;7647945;22;81282;-51
2022/10/08 10:45:09;;;;;;;21.83;4.80;;;27.40;51.60;;;;;;7673444;22;80315;-49
2022/10/08 10:48:09;;;;;;;13.88;4.40;;;27.40;52.50;;;;;;7672326;22;80280;-48
2022/10/08 10:51:10;;;;;;;10.18;4.32;;;27.50;51.90;;;;;;7674392;22;82063;-50
2022/10/08 10:54:10;;;;;;;14.60;5.60;;;27.50;52.80;;;;;;7672941;22;81747;-50
2022/10/08 10:57:11;;;;;;;10.55;4.70;;;27.60;54.30;;;;;;7674396;22;80251;-53
2022/10/08 11:00:11;;;;;;;14.43;4.25;;;27.60;53.20;;;;;;7671195;22;80295;-51
2022/10/08 11:03:12;;;;;;;9.68;4.93;;;27.60;53.20;;;;;;7680283;22;80728;-52
2022/10/08 11:06:12;;;;;;;9.32;4.47;;;27.70;53.70;;;;;;7680282;22;80265;-52
2022/10/08 11:09:13;;;;;;;14.30;5.55;;;27.70;53.70;;;;;;7679844;22;81253;-51
2022/10/08 11:12:13;;;;;;;10.30;4.82;;;27.70;54.30;;;;;;7653651;22;81465;-49
2022/10/08 11:15:14;;;;;;;7.22;4.38;;;27.70;51.50;;;;;;7679337;22;81475;-48
2022/10/08 11:18:14;;;;;;;6.38;3.95;;;27.60;50.50;;;;;;7682487;22;80899;-51
2022/10/08 11:21:15;;;;;;;9.60;4.22;;;27.60;49.60;;;;;;7679570;22;79895;-51
2022/10/08 11:24:15;;;;;;;9.88;4.28;;;27.60;49.90;;;;;;7679113;22;81770;-49
2022/10/08 11:27:16;;;;;;;6.55;4.43;;;27.60;49.30;;;;;;7681367;22;82806;-52
2022/10/08 11:30:16;;;;;;;11.00;3.88;;;27.70;49.30;;;;;;7681119;22;80410;-48
2022/10/08 11:33:17;;;;;;;5.57;3.75;;;27.70;49.00;;;;;;7681795;22;80432;-50
2022/10/08 11:36:18;;;;;;;5.00;3.50;;;27.60;48.70;;;;;;7680723;22;80099;-52
2022/10/08 11:39:19;;;;;;;11.15;4.18;;;27.60;48.70;;;;;;7682557;22;80442;-52
2022/10/08 11:42:19;;;;;;;9.90;3.47;;;27.70;49.90;;;;;;7680232;22;80274;-50
2022/10/08 11:45:20;;;;;;;12.63;3.47;;;27.70;50.10;;;;;;7681264;22;80257;-52
2022/10/08 11:48:20;;;;;;;7.35;3.80;;;27.70;51.60;;;;;;7681299;22;81813;-52
2022/10/08 11:51:21;;;;;;;10.88;4.00;;;27.60;51.50;;;;;;7682602;22;80319;-52
2022/10/08 11:54:21;;;;;;;6.90;3.75;;;27.60;51.60;;;;;;7681137;22;80399;-50
2022/10/08 11:57:23;;;;;;;9.32;4.20;;;27.60;48.90;;;;;;7681173;22;80318;-52
2022/10/08 12:00:24;;;;;;;5.70;3.78;;;27.60;49.30;;;;;;7673569;22;81856;-52
2022/10/08 12:03:25;;;;;;;10.30;3.75;;;27.60;49.20;;;;;;7676480;22;81289;-49
2022/10/08 12:06:26;;;;;;;6.28;3.95;;;27.60;49.10;;;;;;7675242;22;80809;-50
2022/10/08 12:09:27;;;;;;;6.82;3.90;;;27.50;48.90;;;;;;7675207;22;80422;-52
2022/10/08 12:12:27;;;;;;;11.68;4.13;;;27.60;48.30;;;;;;7674631;22;80480;-52
2022/10/08 12:15:32;;;;;;;6.63;4.13;;;27.60;48.60;;;;;;7675234;22;80355;-48
2022/10/08 12:18:32;;;;;;;6.88;4.13;;;27.60;48.70;;;;;;7674621;22;80659;-48
2022/10/08 12:21:33;;;;;;;7.70;4.03;;;27.60;48.20;;;;;;7680418;22;80330;-54
2022/10/08 12:24:33;;;;;;;5.60;4.15;;;27.60;47.50;;;;;;7678421;22;82274;-50
2022/10/08 12:27:34;;;;;;;9.35;4.55;;;27.50;47.50;;;;;;7681399;22;81117;-50
2022/10/08 12:30:34;;;;;;;8.20;4.53;;;27.40;47.40;;;;;;7678738;22;80457;-49
2022/10/08 12:33:35;;;;;;;6.30;3.72;;;27.40;46.90;;;;;;7679811;22;80715;-50
2022/10/08 12:36:36;;;;;;;7.57;5.13;;;27.50;47.30;;;;;;7681129;22;81948;-49
2022/10/08 12:39:36;;;;;;;9.88;5.10;;;27.60;47.30;;;;;;7679060;22;81293;-48
2022/10/08 12:42:37;;;;;;;15.43;5.53;;;27.60;47.70;;;;;;7680467;22;79989;-49
2022/10/08 12:45:37;;;;;;;12.27;5.63;;;27.60;47.80;;;;;;7681312;22;81290;-64
2022/10/08 12:48:38;;;;;;;10.80;4.75;;;27.50;47.30;;;;;;7683566;22;80451;-65
2022/10/08 12:51:38;;;;;;;7.28;4.90;;;27.50;47.40;;;;;;7681479;22;80723;-63
2022/10/08 12:54:39;;;;;;;8.77;4.63;;;27.40;47.20;;;;;;7681748;22;80203;-66
2022/10/08 12:57:39;;;;;;;6.18;4.43;;;27.40;47.90;;;;;;7680541;22;81898;-66
2022/10/08 13:00:40;;;;;;;5.50;4.22;;;27.40;47.90;;;;;;7680083;22;81392;-65
2022/10/08 13:03:40;;;;;;;6.32;4.85;;;27.40;47.70;;;;;;7684443;22;81959;-62
2022/10/08 13:06:41;;;;;;;6.57;4.50;;;27.40;47.90;;;;;;7679666;22;80059;-60
2022/10/08 13:09:41;;;;;;;5.60;4.43;;;27.50;47.20;;;;;;7681156;22;80403;-60
2022/10/08 13:12:42;;;;;;;6.45;4.60;;;27.50;47.30;;;;;;7681609;22;80282;-62
2022/10/08 13:15:43;;;;;;;10.23;5.18;;;27.50;47.90;;;;;;7680680;22;80184;-62
2022/10/08 13:18:43;;;;;;;10.60;5.65;;;27.50;47.30;;;;;;7682715;22;80185;-63
2022/10/08 13:21:44;;;;;;;7.68;4.85;;;27.50;47.60;;;;;;7678740;22;80277;-63
2022/10/08 13:24:44;;;;;;;9.30;4.93;;;27.50;48.00;;;;;;7680864;22;80366;-64
2022/10/08 13:27:45;;;;;;;9.13;4.95;;;27.40;48.00;;;;;;7662193;22;81609;-64
2022/10/08 13:30:45;;;;;;;15.15;5.38;;;27.50;48.60;;;;;;7665983;22;81446;-62
2022/10/08 13:33:46;;;;;;;6.82;5.00;;;27.50;48.80;;;;;;7670021;22;86339;-61
2022/10/08 13:36:46;;;;;;;8.77;5.50;;;27.50;48.90;;;;;;7670814;22;80586;-60
2022/10/08 13:39:47;;;;;;;8.98;4.35;;;27.40;48.80;;;;;;7679343;22;80482;-59
2022/10/08 13:42:47;;;;;;;8.88;5.05;;;27.50;48.60;;;;;;7682875;22;80665;-63
2022/10/08 13:45:48;;;;;;;16.88;5.55;;;27.40;48.70;;;;;;7681605;22;82066;-61
2022/10/08 13:48:48;;;;;;;9.73;5.38;;;27.40;48.70;;;;;;7679869;22;80877;-63
2022/10/08 13:51:49;;;;;;;9.70;4.93;;;27.30;49.00;;;;;;7683446;22;80285;-61
2022/10/08 13:54:50;;;;;;;9.88;5.80;;;27.20;48.80;;;;;;7681425;22;80175;-60
2022/10/08 13:57:50;;;;;;;9.70;6.13;;;27.20;49.10;;;;;;7670759;22;80202;-63
2022/10/08 14:00:53;;;;;;;8.43;6.03;;;27.10;49.20;;;;;;7659333;22;82645;-62
2022/10/08 14:03:53;;;;;;;9.52;6.07;;;27.10;49.20;;;;;;7660247;22;80525;-61
2022/10/08 14:06:54;;;;;;;8.15;6.07;;;27.10;49.00;;;;;;7662359;22;80674;-62
2022/10/08 14:09:54;;;;;;;9.63;6.00;;;27.10;49.10;;;;;;7660158;22;80668;-62
2022/10/08 14:12:55;;;;;;;9.20;6.28;;;27.10;49.10;;;;;;7660052;22;80729;-60
2022/10/08 14:15:55;;;;;;;11.35;6.32;;;27.00;48.80;;;;;;7670531;22;81441;-59
2022/10/08 14:18:56;;;;;;;8.13;6.35;;;27.00;49.50;;;;;;7672045;22;80831;-64
2022/10/08 14:21:56;;;;;;;7.63;6.28;;;27.10;77.10;;;;;;7674296;22;80471;-62
2022/10/08 14:24:57;;;;;;;10.77;6.75;;;27.10;76.40;;;;;;7674981;22;80761;-64
2022/10/08 14:27:57;;;;;;;8.70;6.07;;;27.00;76.40;;;;;;7672697;22;80342;-63
2022/10/08 14:30:58;;;;;;;10.20;6.80;;;27.10;76.60;;;;;;7674912;22;80972;-65
2022/10/08 14:33:58;;;;;;;10.82;6.43;;;27.00;76.80;;;;;;7675847;22;81265;-62
2022/10/08 14:36:59;;;;;;;9.27;6.53;;;27.00;76.70;;;;;;7674181;22;80486;-61
2022/10/08 14:39:59;;;;;;;9.50;6.88;;;27.00;77.60;;;;;;7672987;22;80899;-63
2022/10/08 14:43:00;;;;;;;12.90;6.75;;;27.00;77.50;;;;;;7676888;22;80390;-64
2022/10/08 14:46:00;;;;;;;9.88;6.47;;;27.10;77.20;;;;;;7638343;22;82266;-62
2022/10/08 14:49:03;;;;;;;8.32;6.43;;;27.20;76.90;;;;;;7674654;22;80689;-63
2022/10/08 14:52:04;;;;;;;9.15;7.15;;;27.10;76.80;;;;;;7678180;22;84914;-62
2022/10/08 14:55:05;;;;;;;10.13;7.22;;;27.10;77.10;;;;;;7681893;22;80112;-64
2022/10/08 14:58:05;;;;;;;12.48;7.55;;;27.00;76.70;;;;;;7678841;22;80634;-64
2022/10/08 15:01:06;;;;;;;15.18;7.85;;;26.90;59.90;;;;;;7677898;22;81385;-64
2022/10/08 15:04:06;;;;;;;14.35;7.97;;;26.90;61.40;;;;;;7680827;22;80460;-57
2022/10/08 15:07:07;;;;;;;19.35;8.10;;;26.80;61.80;;;;;;7680220;22;80235;-63
2022/10/08 15:10:07;;;;;;;13.80;7.72;;;26.80;62.00;;;;;;7678934;22;80464;-61
2022/10/08 15:13:08;;;;;;;15.60;7.50;;;26.80;62.00;;;;;;7678923;22;80706;-62
2022/10/08 15:16:08;;;;;;;19.77;8.02;;;26.70;62.30;;;;;;7680562;22;80674;-61
2022/10/08 15:19:09;;;;;;;25.33;8.20;;;26.60;62.20;;;;;;7681282;22;80642;-62
2022/10/08 15:22:09;;;;;;;12.75;8.65;;;26.50;62.80;;;;;;7681720;22;82061;-61
2022/10/08 15:25:10;;;;;;;11.15;8.23;;;26.50;62.30;;;;;;7681591;22;81181;-62
2022/10/08 15:28:10;;;;;;;13.30;9.30;;;26.50;62.30;;;;;;7681155;22;81168;-63
2022/10/08 15:31:11;;;;;;;12.40;8.50;;;26.40;62.60;;;;;;7681294;22;80811;-64
2022/10/08 15:34:12;;;;;;;13.82;8.25;;;26.30;62.90;;;;;;7682454;22;80280;-65
2022/10/08 15:37:13;;;;;;;14.30;8.35;;;26.20;62.90;;;;;;7679276;22;81778;-63